Detall de PIREP

Printer-friendly versionPDF version

[2012/06/30 14:17:00]
Flight IATA:CT1005
Pilot Number:042
Company ICAO:CAT
Aircraft Type:B763/F
PAX:200
Departing Airport: EKCH
Destination Airport: LZIB
Alternate Airport:LHBP
Online: VATSIM
Route:SIMEG M736 SALLO UM44 KOGIM UM725 HDO UM748 KOMUR UL620 KOPIT UM748 BERVA
Flight Level:F350
No Slew and time accel
No pause
Crash detect
Detect pilot in Cockpit between each 30 and 45 minutes
14:17 Zero fuel Weight: 244977 Lbs, Fuel Weight: 161695 Lbs
14:17 VATSIM:EKCH 301350Z 18011KT 9999 SCT036 22/15 Q1012 NOSIG
14:17 VATSIM:LZIB 301400Z 14008KT 110V210 CAVOK 36/16 Q1013 NOSIG
14:18 VOICE CATALONIAN/EU TOUR
14:31 Parking Brakes off
14:41 Take-off
14:41 Take off Weight: 403944 Lbs
14:41 Wind: 140º @ 011 Knots Heading: 220º
14:41 POS N55º 36´ 05´´ E012º 37´ 03´´
14:41 Gear Up: 177 Knots
14:41 Flaps:3 at 177 Knots
14:41 Flaps:2 at 188 Knots
14:42 Flaps:1 at 208 Knots
14:42 Flaps:0 at 238 Knots
14:56 Wind:219º@036 Knots Heading: 178º Ground Speed: 469 Knots Altitude 31374 ft
15:01 TOC
15:01 Fuel Weight: 149422 Lb
15:11 Wind:244º@036 Knots Heading: 176º Ground Speed: 457 Knots Altitude 34996 ft
15:26 Wind:259º@029 Knots Heading: 162º Ground Speed: 480 Knots Altitude 35029 ft
15:36 TOD
15:36 Fuel Weight: 142522 Lb
15:41 Wind:267º@029 Knots Heading: 139º Ground Speed: 445 Knots Altitude 28175 ft
15:49 Flaps:1 at 267 Knots
15:54 Flaps:2 at 208 Knots
15:56 Wind:158º@006 Knots Heading: 209º Ground Speed: 214 Knots Altitude 3356 ft
15:59 Gear Down: 183 Knots
15:59 Flaps:3 at 183 Knots
15:59 Flaps:4 at 182 Knots
15:59 Flaps:5 at 181 Knots
15:59 Flaps:6 at 177 Knots
16:02 TouchDown:Rate -187 ft/min Speed: 134 Knots
16:02 VATSIM:LZIB 301530Z 17007KT 110V220 CAVOK 36/16 Q1012 NOSIG
16:02 Land
16:02 Wind:167º@005 Knots
16:02 Heading: 225º
16:02 Flight Duration: 01:21
16:02 Landing Weight: 384350 Lbs
16:02 POS N48º 10´ 03´´ E017º 12´ 34´´
16:06 Parking brakes on
16:06 Block to Block Duration: 01:35
16:06 Final Fuel: 138163 Lbls
16:06 Spent Fuel: 23531 Lbls
16:06 Flight Length: 553 NM
16:06 TOD Land Length: 139 NM

Exportar CSV

Powered by Drupal - Modified by Danger4k